Terminal Aerodrome Forecast
Issued by NWS New Orleans/Baton Rouge, LA

Home | Current Version | Previous Version | Text Only | Print | Product List | Glossary On
Versions: 1 2 3 4 5 6 7 8 9 10 11 12 13
000
FTUS44 KLIX 282333
TAFNEW
TAF
KNEW 282333Z 2900/2924 34024G29KT P6SM FEW035 OVC050
     FM290200 20005KT P6SM FEW060 SCT200
     FM290900 00000KT P6SM FEW080 FEW250=

USA.gov is the U.S. government's official web portal to all federal, state and local government web resources and services.